VYYY/RGN METAR and TAF weather

Enter ICAO airport designator
Station Type Date Time Source
VYYY METAR 2020/08/15 16:00 UTC NOAA

VYYY 151600Z 10006KT 6000 -RA BKN015 FEW018CB OVC100 25/23 Q1009


Station Type Date Time Source
VYYY Decoded METAR 2020/08/15 16:00 UTC NOAA

Yangon, Myanmar (VYYY) 16-46N 096-10E 15M
Aug 15, 2020 - 12:00 PM EDT / 2020.08.15 1600 UTC
Wind: from the E (100 degrees) at 7 MPH (6 KT):0
Visibility: 3 mile(s):0
Sky conditions: overcast
Weather: light rain; Cumulonimbus clouds observed
Temperature: 77 F (25 C)
Dew Point: 73 F (23 C)
Relative Humidity: 88%
Pressure (altimeter): 29.80 in. Hg (1009 hPa)
ob: VYYY 151600Z 10006KT 6000 -RA BKN015 FEW018CB OVC100 25/23 Q1009
cycle: 16

Station Type Date Time Source
VYYY TAF 2020/08/15 12:39 UTC NOAA

TAF VYYY 151100Z 1512/1612 23008KT 7000 BKN016 FEW020CB BKN110
TEMPO 1512/1518 16010KT 4000 -RA
BECMG 1601/1604 19007KT 6000 BKN015 FEW020CB BKN100

Example: see airport list